sensor_id;sensor_type;location;lat;lon;timestamp;P1;durP1;ratioP1;P2;durP2;ratioP2
64907;SDS011;69061;52.236;5.188;2024-01-10T00:00:39;15.10;;;7.22;;
64907;SDS011;69061;52.236;5.188;2024-01-10T00:03:06;12.13;;;7.15;;
64907;SDS011;69061;52.236;5.188;2024-01-10T00:05:33;12.60;;;7.35;;
64907;SDS011;69061;52.236;5.188;2024-01-10T00:07:59;11.52;;;6.88;;
64907;SDS011;69061;52.236;5.188;2024-01-10T00:10:27;16.60;;;7.90;;
64907;SDS011;69061;52.236;5.188;2024-01-10T00:12:54;11.93;;;7.30;;
64907;SDS011;69061;52.236;5.188;2024-01-10T00:15:20;14.07;;;6.57;;
64907;SDS011;69061;52.236;5.188;2024-01-10T00:17:47;12.20;;;6.60;;
64907;SDS011;69061;52.236;5.188;2024-01-10T00:20:14;14.18;;;7.53;;
64907;SDS011;69061;52.236;5.188;2024-01-10T00:22:40;13.52;;;7.53;;
64907;SDS011;69061;52.236;5.188;2024-01-10T00:25:07;10.88;;;7.05;;
64907;SDS011;69061;52.236;5.188;2024-01-10T00:27:35;12.90;;;7.00;;
64907;SDS011;69061;52.236;5.188;2024-01-10T00:30:02;13.48;;;7.80;;
64907;SDS011;69061;52.236;5.188;2024-01-10T00:32:30;14.32;;;7.53;;
64907;SDS011;69061;52.236;5.188;2024-01-10T00:34:57;15.40;;;7.38;;
64907;SDS011;69061;52.236;5.188;2024-01-10T00:37:24;16.42;;;8.02;;
64907;SDS011;69061;52.236;5.188;2024-01-10T00:39:50;18.50;;;8.38;;
64907;SDS011;69061;52.236;5.188;2024-01-10T00:42:17;14.82;;;7.70;;
64907;SDS011;69061;52.236;5.188;2024-01-10T00:44:45;12.85;;;7.45;;
64907;SDS011;69061;52.236;5.188;2024-01-10T00:47:12;14.40;;;7.78;;
64907;SDS011;69061;52.236;5.188;2024-01-10T00:49:40;14.90;;;7.80;;
64907;SDS011;69061;52.236;5.188;2024-01-10T00:52:07;15.10;;;7.53;;
64907;SDS011;69061;52.236;5.188;2024-01-10T00:54:33;14.45;;;7.90;;
64907;SDS011;69061;52.236;5.188;2024-01-10T00:57:00;16.05;;;7.45;;
64907;SDS011;69061;52.236;5.188;2024-01-10T00:59:27;15.00;;;8.63;;
64907;SDS011;69061;52.236;5.188;2024-01-10T01:01:55;13.35;;;7.13;;
64907;SDS011;69061;52.236;5.188;2024-01-10T01:04:22;15.13;;;8.45;;
64907;SDS011;69061;52.236;5.188;2024-01-10T01:06:48;14.52;;;8.25;;
64907;SDS011;69061;52.236;5.188;2024-01-10T01:09:16;18.95;;;9.18;;
64907;SDS011;69061;52.236;5.188;2024-01-10T01:11:43;14.48;;;7.90;;
64907;SDS011;69061;52.236;5.188;2024-01-10T01:14:09;16.73;;;8.57;;
64907;SDS011;69061;52.236;5.188;2024-01-10T01:16:36;16.02;;;8.02;;
64907;SDS011;69061;52.236;5.188;2024-01-10T01:19:04;15.85;;;8.40;;
64907;SDS011;69061;52.236;5.188;2024-01-10T01:21:31;15.15;;;8.90;;
64907;SDS011;69061;52.236;5.188;2024-01-10T01:23:57;17.70;;;9.68;;
64907;SDS011;69061;52.236;5.188;2024-01-10T01:26:24;15.43;;;9.45;;
64907;SDS011;69061;52.236;5.188;2024-01-10T01:28:51;14.35;;;8.88;;
64907;SDS011;69061;52.236;5.188;2024-01-10T01:31:18;16.73;;;10.10;;
64907;SDS011;69061;52.236;5.188;2024-01-10T01:33:46;15.25;;;8.85;;
64907;SDS011;69061;52.236;5.188;2024-01-10T01:36:14;17.25;;;10.02;;
64907;SDS011;69061;52.236;5.188;2024-01-10T01:38:40;18.58;;;10.10;;
64907;SDS011;69061;52.236;5.188;2024-01-10T01:41:07;18.52;;;9.95;;
64907;SDS011;69061;52.236;5.188;2024-01-10T01:43:34;19.52;;;11.35;;
64907;SDS011;69061;52.236;5.188;2024-01-10T01:46:01;15.55;;;9.88;;
64907;SDS011;69061;52.236;5.188;2024-01-10T01:48:29;14.82;;;8.82;;
64907;SDS011;69061;52.236;5.188;2024-01-10T01:51:00;16.95;;;10.98;;
64907;SDS011;69061;52.236;5.188;2024-01-10T01:53:32;22.10;;;11.27;;
64907;SDS011;69061;52.236;5.188;2024-01-10T01:55:59;16.67;;;9.88;;
64907;SDS011;69061;52.236;5.188;2024-01-10T01:58:28;17.05;;;10.05;;
64907;SDS011;69061;52.236;5.188;2024-01-10T02:00:55;18.38;;;9.82;;
64907;SDS011;69061;52.236;5.188;2024-01-10T02:03:22;25.13;;;10.68;;
64907;SDS011;69061;52.236;5.188;2024-01-10T02:05:49;18.42;;;10.57;;
64907;SDS011;69061;52.236;5.188;2024-01-10T02:08:16;19.88;;;10.73;;
64907;SDS011;69061;52.236;5.188;2024-01-10T02:10:44;16.27;;;9.82;;
64907;SDS011;69061;52.236;5.188;2024-01-10T02:13:11;18.85;;;9.88;;
64907;SDS011;69061;52.236;5.188;2024-01-10T02:15:38;16.52;;;9.73;;
64907;SDS011;69061;52.236;5.188;2024-01-10T02:18:06;23.05;;;10.20;;
64907;SDS011;69061;52.236;5.188;2024-01-10T02:20:33;20.65;;;10.18;;
64907;SDS011;69061;52.236;5.188;2024-01-10T02:22:59;18.80;;;10.43;;
64907;SDS011;69061;52.236;5.188;2024-01-10T02:25:27;19.85;;;11.23;;
64907;SDS011;69061;52.236;5.188;2024-01-10T02:27:54;18.13;;;10.60;;
64907;SDS011;69061;52.236;5.188;2024-01-10T02:30:20;18.67;;;10.90;;
64907;SDS011;69061;52.236;5.188;2024-01-10T02:32:47;18.67;;;10.38;;
64907;SDS011;69061;52.236;5.188;2024-01-10T02:35:14;21.40;;;11.48;;
64907;SDS011;69061;52.236;5.188;2024-01-10T02:37:40;19.60;;;10.38;;
64907;SDS011;69061;52.236;5.188;2024-01-10T02:40:08;21.02;;;10.40;;
64907;SDS011;69061;52.236;5.188;2024-01-10T02:42:37;25.42;;;11.60;;
64907;SDS011;69061;52.236;5.188;2024-01-10T02:45:04;17.77;;;10.63;;
64907;SDS011;69061;52.236;5.188;2024-01-10T02:47:30;17.17;;;9.70;;
64907;SDS011;69061;52.236;5.188;2024-01-10T02:49:58;22.23;;;12.20;;
64907;SDS011;69061;52.236;5.188;2024-01-10T02:52:24;19.00;;;10.40;;
64907;SDS011;69061;52.236;5.188;2024-01-10T02:54:51;22.45;;;11.70;;
64907;SDS011;69061;52.236;5.188;2024-01-10T02:57:18;22.45;;;11.90;;
64907;SDS011;69061;52.236;5.188;2024-01-10T02:59:46;20.38;;;12.02;;
64907;SDS011;69061;52.236;5.188;2024-01-10T03:02:13;19.17;;;10.35;;
64907;SDS011;69061;52.236;5.188;2024-01-10T03:04:39;20.27;;;11.57;;
64907;SDS011;69061;52.236;5.188;2024-01-10T03:07:06;24.48;;;10.50;;
64907;SDS011;69061;52.236;5.188;2024-01-10T03:09:36;19.80;;;11.38;;
64907;SDS011;69061;52.236;5.188;2024-01-10T03:12:03;22.88;;;11.70;;
64907;SDS011;69061;52.236;5.188;2024-01-10T03:14:31;21.45;;;10.98;;
64907;SDS011;69061;52.236;5.188;2024-01-10T03:17:00;23.77;;;10.80;;
64907;SDS011;69061;52.236;5.188;2024-01-10T03:19:27;17.90;;;10.93;;
64907;SDS011;69061;52.236;5.188;2024-01-10T03:21:54;20.27;;;10.18;;
64907;SDS011;69061;52.236;5.188;2024-01-10T03:24:20;25.33;;;11.85;;
64907;SDS011;69061;52.236;5.188;2024-01-10T03:26:49;18.58;;;11.63;;
64907;SDS011;69061;52.236;5.188;2024-01-10T03:29:16;20.38;;;11.63;;
64907;SDS011;69061;52.236;5.188;2024-01-10T03:31:42;21.60;;;12.20;;
64907;SDS011;69061;52.236;5.188;2024-01-10T03:34:10;20.23;;;12.43;;
64907;SDS011;69061;52.236;5.188;2024-01-10T03:36:37;17.00;;;9.73;;
64907;SDS011;69061;52.236;5.188;2024-01-10T03:39:03;20.50;;;10.38;;
64907;SDS011;69061;52.236;5.188;2024-01-10T03:41:32;14.48;;;9.63;;
64907;SDS011;69061;52.236;5.188;2024-01-10T03:43:59;16.33;;;9.82;;
64907;SDS011;69061;52.236;5.188;2024-01-10T03:46:25;21.05;;;10.75;;
64907;SDS011;69061;52.236;5.188;2024-01-10T03:48:52;19.00;;;10.23;;
64907;SDS011;69061;52.236;5.188;2024-01-10T03:51:20;17.60;;;10.65;;
64907;SDS011;69061;52.236;5.188;2024-01-10T03:53:46;17.38;;;10.40;;
64907;SDS011;69061;52.236;5.188;2024-01-10T03:56:14;19.05;;;10.73;;
64907;SDS011;69061;52.236;5.188;2024-01-10T03:58:41;22.30;;;10.88;;
64907;SDS011;69061;52.236;5.188;2024-01-10T04:01:07;18.27;;;10.23;;
64907;SDS011;69061;52.236;5.188;2024-01-10T04:03:34;19.95;;;10.35;;
64907;SDS011;69061;52.236;5.188;2024-01-10T04:06:02;19.52;;;10.15;;
64907;SDS011;69061;52.236;5.188;2024-01-10T04:08:30;19.02;;;9.60;;
64907;SDS011;69061;52.236;5.188;2024-01-10T04:10:56;17.17;;;10.15;;
64907;SDS011;69061;52.236;5.188;2024-01-10T04:13:23;17.77;;;11.43;;
64907;SDS011;69061;52.236;5.188;2024-01-10T04:15:52;15.88;;;9.35;;
64907;SDS011;69061;52.236;5.188;2024-01-10T04:18:19;17.38;;;9.45;;
64907;SDS011;69061;52.236;5.188;2024-01-10T04:20:46;20.27;;;11.73;;
64907;SDS011;69061;52.236;5.188;2024-01-10T04:23:13;17.50;;;10.02;;
64907;SDS011;69061;52.236;5.188;2024-01-10T04:25:41;22.42;;;10.90;;
64907;SDS011;69061;52.236;5.188;2024-01-10T04:28:08;21.05;;;11.95;;
64907;SDS011;69061;52.236;5.188;2024-01-10T04:30:37;22.90;;;12.13;;
64907;SDS011;69061;52.236;5.188;2024-01-10T04:33:04;18.20;;;10.63;;
64907;SDS011;69061;52.236;5.188;2024-01-10T04:35:31;20.52;;;12.48;;
64907;SDS011;69061;52.236;5.188;2024-01-10T04:37:57;20.38;;;11.80;;
64907;SDS011;69061;52.236;5.188;2024-01-10T04:40:24;23.90;;;12.48;;
64907;SDS011;69061;52.236;5.188;2024-01-10T04:42:52;22.42;;;13.25;;
64907;SDS011;69061;52.236;5.188;2024-01-10T04:45:21;23.15;;;12.30;;
64907;SDS011;69061;52.236;5.188;2024-01-10T04:47:48;28.83;;;13.27;;
64907;SDS011;69061;52.236;5.188;2024-01-10T04:50:16;23.08;;;13.23;;
64907;SDS011;69061;52.236;5.188;2024-01-10T04:52:43;28.80;;;13.43;;
64907;SDS011;69061;52.236;5.188;2024-01-10T04:55:10;23.30;;;11.60;;
64907;SDS011;69061;52.236;5.188;2024-01-10T04:57:37;21.80;;;12.00;;
64907;SDS011;69061;52.236;5.188;2024-01-10T05:00:07;24.48;;;13.32;;
64907;SDS011;69061;52.236;5.188;2024-01-10T05:02:34;21.33;;;12.73;;
64907;SDS011;69061;52.236;5.188;2024-01-10T05:05:02;23.52;;;11.73;;
64907;SDS011;69061;52.236;5.188;2024-01-10T05:07:29;25.15;;;11.93;;
64907;SDS011;69061;52.236;5.188;2024-01-10T05:09:56;21.20;;;11.00;;
64907;SDS011;69061;52.236;5.188;2024-01-10T05:12:22;20.58;;;11.43;;
64907;SDS011;69061;52.236;5.188;2024-01-10T05:14:49;18.88;;;11.55;;
64907;SDS011;69061;52.236;5.188;2024-01-10T05:17:17;24.60;;;12.45;;
64907;SDS011;69061;52.236;5.188;2024-01-10T05:19:44;19.25;;;11.10;;
64907;SDS011;69061;52.236;5.188;2024-01-10T05:22:11;27.75;;;11.65;;
64907;SDS011;69061;52.236;5.188;2024-01-10T05:24:37;18.60;;;11.70;;
64907;SDS011;69061;52.236;5.188;2024-01-10T05:27:04;19.25;;;11.57;;
64907;SDS011;69061;52.236;5.188;2024-01-10T05:29:31;21.25;;;12.27;;
64907;SDS011;69061;52.236;5.188;2024-01-10T05:31:58;24.48;;;11.60;;
64907;SDS011;69061;52.236;5.188;2024-01-10T05:34:25;23.02;;;11.95;;
64907;SDS011;69061;52.236;5.188;2024-01-10T05:36:52;22.58;;;11.18;;
64907;SDS011;69061;52.236;5.188;2024-01-10T05:39:19;20.35;;;11.13;;
64907;SDS011;69061;52.236;5.188;2024-01-10T05:41:46;18.08;;;11.32;;
64907;SDS011;69061;52.236;5.188;2024-01-10T05:44:13;19.38;;;11.40;;
64907;SDS011;69061;52.236;5.188;2024-01-10T05:46:40;24.75;;;12.15;;
64907;SDS011;69061;52.236;5.188;2024-01-10T05:49:07;21.85;;;10.90;;
64907;SDS011;69061;52.236;5.188;2024-01-10T05:51:35;22.65;;;12.98;;
64907;SDS011;69061;52.236;5.188;2024-01-10T05:54:02;17.65;;;10.98;;
64907;SDS011;69061;52.236;5.188;2024-01-10T05:56:30;18.60;;;11.30;;
64907;SDS011;69061;52.236;5.188;2024-01-10T05:58:57;19.38;;;10.95;;
64907;SDS011;69061;52.236;5.188;2024-01-10T06:01:23;22.83;;;11.43;;
64907;SDS011;69061;52.236;5.188;2024-01-10T06:03:50;25.30;;;12.45;;
64907;SDS011;69061;52.236;5.188;2024-01-10T06:06:17;21.75;;;11.85;;
64907;SDS011;69061;52.236;5.188;2024-01-10T06:08:47;21.30;;;11.50;;
64907;SDS011;69061;52.236;5.188;2024-01-10T06:11:15;19.90;;;12.95;;
64907;SDS011;69061;52.236;5.188;2024-01-10T06:13:43;17.98;;;11.27;;
64907;SDS011;69061;52.236;5.188;2024-01-10T06:16:10;22.25;;;12.55;;
64907;SDS011;69061;52.236;5.188;2024-01-10T06:18:38;19.15;;;10.43;;
64907;SDS011;69061;52.236;5.188;2024-01-10T06:21:05;21.65;;;12.40;;
64907;SDS011;69061;52.236;5.188;2024-01-10T06:23:35;21.40;;;11.18;;
64907;SDS011;69061;52.236;5.188;2024-01-10T06:26:04;20.63;;;11.48;;
64907;SDS011;69061;52.236;5.188;2024-01-10T06:28:31;22.45;;;11.48;;
64907;SDS011;69061;52.236;5.188;2024-01-10T06:30:58;20.95;;;11.20;;
64907;SDS011;69061;52.236;5.188;2024-01-10T06:33:25;21.70;;;12.15;;
64907;SDS011;69061;52.236;5.188;2024-01-10T06:35:52;22.15;;;11.15;;
64907;SDS011;69061;52.236;5.188;2024-01-10T06:38:19;20.20;;;11.13;;
64907;SDS011;69061;52.236;5.188;2024-01-10T06:40:47;18.25;;;11.27;;
64907;SDS011;69061;52.236;5.188;2024-01-10T06:43:17;20.75;;;11.48;;
64907;SDS011;69061;52.236;5.188;2024-01-10T06:45:44;18.60;;;10.73;;
64907;SDS011;69061;52.236;5.188;2024-01-10T06:48:12;18.88;;;10.77;;
64907;SDS011;69061;52.236;5.188;2024-01-10T06:50:39;26.70;;;13.15;;
64907;SDS011;69061;52.236;5.188;2024-01-10T06:53:06;22.23;;;11.25;;
64907;SDS011;69061;52.236;5.188;2024-01-10T06:55:33;19.85;;;11.18;;
64907;SDS011;69061;52.236;5.188;2024-01-10T06:58:00;22.85;;;11.73;;
64907;SDS011;69061;52.236;5.188;2024-01-10T07:00:31;22.73;;;11.50;;
64907;SDS011;69061;52.236;5.188;2024-01-10T07:03:00;19.20;;;11.07;;
64907;SDS011;69061;52.236;5.188;2024-01-10T07:05:29;17.42;;;9.93;;
64907;SDS011;69061;52.236;5.188;2024-01-10T07:07:56;18.67;;;10.60;;
64907;SDS011;69061;52.236;5.188;2024-01-10T07:10:23;20.17;;;12.00;;
64907;SDS011;69061;52.236;5.188;2024-01-10T07:12:52;16.17;;;9.68;;
64907;SDS011;69061;52.236;5.188;2024-01-10T07:15:19;21.30;;;10.30;;
64907;SDS011;69061;52.236;5.188;2024-01-10T07:17:48;19.23;;;9.93;;
64907;SDS011;69061;52.236;5.188;2024-01-10T07:20:16;20.30;;;11.07;;
64907;SDS011;69061;52.236;5.188;2024-01-10T07:22:42;20.52;;;9.70;;
64907;SDS011;69061;52.236;5.188;2024-01-10T07:25:10;19.92;;;10.23;;
64907;SDS011;69061;52.236;5.188;2024-01-10T07:27:39;17.55;;;9.65;;
64907;SDS011;69061;52.236;5.188;2024-01-10T07:30:07;18.38;;;9.93;;
64907;SDS011;69061;52.236;5.188;2024-01-10T07:32:38;18.67;;;10.52;;
64907;SDS011;69061;52.236;5.188;2024-01-10T07:35:08;25.48;;;12.30;;
64907;SDS011;69061;52.236;5.188;2024-01-10T07:37:36;22.85;;;10.43;;
64907;SDS011;69061;52.236;5.188;2024-01-10T07:40:03;16.15;;;9.82;;
64907;SDS011;69061;52.236;5.188;2024-01-10T07:42:32;17.42;;;9.82;;
64907;SDS011;69061;52.236;5.188;2024-01-10T07:44:58;16.40;;;9.40;;
64907;SDS011;69061;52.236;5.188;2024-01-10T07:47:29;17.65;;;9.85;;
64907;SDS011;69061;52.236;5.188;2024-01-10T07:49:55;20.50;;;9.80;;
64907;SDS011;69061;52.236;5.188;2024-01-10T07:52:24;18.40;;;10.30;;
64907;SDS011;69061;52.236;5.188;2024-01-10T07:54:50;19.08;;;9.88;;
64907;SDS011;69061;52.236;5.188;2024-01-10T07:57:17;20.40;;;9.90;;
64907;SDS011;69061;52.236;5.188;2024-01-10T07:59:44;17.13;;;10.75;;
64907;SDS011;69061;52.236;5.188;2024-01-10T08:02:11;16.63;;;9.25;;
64907;SDS011;69061;52.236;5.188;2024-01-10T08:04:38;17.05;;;9.25;;
64907;SDS011;69061;52.236;5.188;2024-01-10T08:07:04;18.27;;;9.63;;
64907;SDS011;69061;52.236;5.188;2024-01-10T08:09:32;25.73;;;11.30;;
64907;SDS011;69061;52.236;5.188;2024-01-10T08:11:59;16.58;;;9.88;;
64907;SDS011;69061;52.236;5.188;2024-01-10T08:14:26;14.20;;;9.18;;
64907;SDS011;69061;52.236;5.188;2024-01-10T08:16:52;22.00;;;9.75;;
64907;SDS011;69061;52.236;5.188;2024-01-10T08:19:19;19.75;;;9.35;;
64907;SDS011;69061;52.236;5.188;2024-01-10T08:21:46;17.02;;;9.30;;
64907;SDS011;69061;52.236;5.188;2024-01-10T08:24:12;18.40;;;10.80;;
64907;SDS011;69061;52.236;5.188;2024-01-10T08:26:41;18.45;;;9.88;;
64907;SDS011;69061;52.236;5.188;2024-01-10T08:29:07;24.38;;;10.52;;
64907;SDS011;69061;52.236;5.188;2024-01-10T08:31:35;17.75;;;9.18;;
64907;SDS011;69061;52.236;5.188;2024-01-10T08:34:02;19.02;;;10.10;;
64907;SDS011;69061;52.236;5.188;2024-01-10T08:36:29;17.88;;;10.15;;
64907;SDS011;69061;52.236;5.188;2024-01-10T08:38:55;16.38;;;8.93;;
64907;SDS011;69061;52.236;5.188;2024-01-10T08:41:22;15.95;;;9.30;;
64907;SDS011;69061;52.236;5.188;2024-01-10T08:43:50;15.88;;;9.25;;
64907;SDS011;69061;52.236;5.188;2024-01-10T08:46:17;16.50;;;8.80;;
64907;SDS011;69061;52.236;5.188;2024-01-10T08:48:44;15.00;;;9.15;;
64907;SDS011;69061;52.236;5.188;2024-01-10T08:51:12;17.13;;;10.02;;
64907;SDS011;69061;52.236;5.188;2024-01-10T08:53:41;15.68;;;7.72;;
64907;SDS011;69061;52.236;5.188;2024-01-10T08:56:08;14.63;;;9.48;;
64907;SDS011;69061;52.236;5.188;2024-01-10T08:58:35;15.55;;;9.30;;
64907;SDS011;69061;52.236;5.188;2024-01-10T09:01:03;17.92;;;8.88;;
64907;SDS011;69061;52.236;5.188;2024-01-10T09:03:30;18.88;;;9.23;;
64907;SDS011;69061;52.236;5.188;2024-01-10T09:05:57;20.90;;;10.05;;
64907;SDS011;69061;52.236;5.188;2024-01-10T09:08:24;20.45;;;10.50;;
64907;SDS011;69061;52.236;5.188;2024-01-10T09:10:50;15.07;;;8.15;;
64907;SDS011;69061;52.236;5.188;2024-01-10T09:13:17;20.42;;;9.15;;
64907;SDS011;69061;52.236;5.188;2024-01-10T09:15:44;17.67;;;9.38;;
64907;SDS011;69061;52.236;5.188;2024-01-10T09:18:12;18.45;;;8.68;;
64907;SDS011;69061;52.236;5.188;2024-01-10T09:20:39;18.52;;;9.38;;
64907;SDS011;69061;52.236;5.188;2024-01-10T09:23:06;14.52;;;8.73;;
64907;SDS011;69061;52.236;5.188;2024-01-10T09:25:32;16.27;;;9.02;;
64907;SDS011;69061;52.236;5.188;2024-01-10T09:28:00;16.42;;;9.13;;
64907;SDS011;69061;52.236;5.188;2024-01-10T09:30:27;16.98;;;9.18;;
64907;SDS011;69061;52.236;5.188;2024-01-10T09:32:53;15.32;;;7.85;;
64907;SDS011;69061;52.236;5.188;2024-01-10T09:35:22;18.52;;;9.77;;
64907;SDS011;69061;52.236;5.188;2024-01-10T09:37:49;18.52;;;9.63;;
64907;SDS011;69061;52.236;5.188;2024-01-10T09:40:18;17.00;;;9.25;;
64907;SDS011;69061;52.236;5.188;2024-01-10T09:42:46;17.08;;;9.63;;
64907;SDS011;69061;52.236;5.188;2024-01-10T09:45:16;18.50;;;9.27;;
64907;SDS011;69061;52.236;5.188;2024-01-10T09:47:43;17.85;;;8.85;;
64907;SDS011;69061;52.236;5.188;2024-01-10T09:50:14;16.15;;;9.90;;
64907;SDS011;69061;52.236;5.188;2024-01-10T09:52:45;16.50;;;10.00;;
64907;SDS011;69061;52.236;5.188;2024-01-10T09:55:17;20.73;;;10.65;;
64907;SDS011;69061;52.236;5.188;2024-01-10T09:57:47;15.95;;;9.27;;
64907;SDS011;69061;52.236;5.188;2024-01-10T10:00:17;19.40;;;9.52;;
64907;SDS011;69061;52.236;5.188;2024-01-10T10:02:45;18.58;;;10.32;;
64907;SDS011;69061;52.236;5.188;2024-01-10T10:05:14;18.05;;;9.23;;
64907;SDS011;69061;52.236;5.188;2024-01-10T10:07:47;17.10;;;9.38;;
64907;SDS011;69061;52.236;5.188;2024-01-10T10:12:43;18.85;;;10.55;;
64907;SDS011;69061;52.236;5.188;2024-01-10T10:15:13;17.13;;;10.15;;
64907;SDS011;69061;52.236;5.188;2024-01-10T10:17:43;22.20;;;11.50;;
64907;SDS011;69061;52.236;5.188;2024-01-10T10:20:13;17.40;;;10.45;;
64907;SDS011;69061;52.236;5.188;2024-01-10T10:22:46;19.50;;;11.20;;
64907;SDS011;69061;52.236;5.188;2024-01-10T10:25:26;18.58;;;11.15;;
64907;SDS011;69061;52.236;5.188;2024-01-10T10:27:54;19.58;;;10.60;;
64907;SDS011;69061;52.236;5.188;2024-01-10T10:30:21;21.17;;;11.73;;
64907;SDS011;69061;52.236;5.188;2024-01-10T10:32:48;18.52;;;11.07;;
64907;SDS011;69061;52.236;5.188;2024-01-10T10:35:15;18.40;;;10.52;;
64907;SDS011;69061;52.236;5.188;2024-01-10T10:37:44;19.75;;;10.40;;
64907;SDS011;69061;52.236;5.188;2024-01-10T10:40:12;21.13;;;12.65;;
64907;SDS011;69061;52.236;5.188;2024-01-10T10:42:43;21.00;;;11.02;;
64907;SDS011;69061;52.236;5.188;2024-01-10T10:45:14;18.67;;;10.23;;
64907;SDS011;69061;52.236;5.188;2024-01-10T10:47:43;21.23;;;11.45;;
64907;SDS011;69061;52.236;5.188;2024-01-10T10:50:12;16.92;;;9.73;;
64907;SDS011;69061;52.236;5.188;2024-01-10T10:52:40;19.75;;;10.73;;
64907;SDS011;69061;52.236;5.188;2024-01-10T10:55:14;19.15;;;10.77;;
64907;SDS011;69061;52.236;5.188;2024-01-10T10:57:43;16.92;;;10.10;;
64907;SDS011;69061;52.236;5.188;2024-01-10T11:00:11;19.35;;;10.65;;
64907;SDS011;69061;52.236;5.188;2024-01-10T11:02:40;20.88;;;11.23;;
64907;SDS011;69061;52.236;5.188;2024-01-10T11:05:08;19.80;;;11.48;;
64907;SDS011;69061;52.236;5.188;2024-01-10T11:07:35;21.95;;;11.10;;
64907;SDS011;69061;52.236;5.188;2024-01-10T11:10:03;21.38;;;11.57;;
64907;SDS011;69061;52.236;5.188;2024-01-10T11:15:34;21.67;;;12.13;;
64907;SDS011;69061;52.236;5.188;2024-01-10T11:18:28;33.28;;;12.10;;
64907;SDS011;69061;52.236;5.188;2024-01-10T11:21:08;21.25;;;12.13;;
64907;SDS011;69061;52.236;5.188;2024-01-10T11:23:46;19.73;;;10.48;;
64907;SDS011;69061;52.236;5.188;2024-01-10T11:26:15;18.98;;;11.40;;
64907;SDS011;69061;52.236;5.188;2024-01-10T11:28:44;21.00;;;11.52;;
64907;SDS011;69061;52.236;5.188;2024-01-10T11:31:14;27.55;;;12.68;;
64907;SDS011;69061;52.236;5.188;2024-01-10T11:33:41;20.80;;;11.63;;
64907;SDS011;69061;52.236;5.188;2024-01-10T11:36:11;21.05;;;12.75;;
64907;SDS011;69061;52.236;5.188;2024-01-10T11:38:40;20.80;;;12.60;;
64907;SDS011;69061;52.236;5.188;2024-01-10T11:41:09;19.77;;;12.07;;
64907;SDS011;69061;52.236;5.188;2024-01-10T11:43:37;23.38;;;11.55;;
64907;SDS011;69061;52.236;5.188;2024-01-10T11:46:05;23.67;;;11.50;;
64907;SDS011;69061;52.236;5.188;2024-01-10T11:48:33;20.20;;;11.85;;
64907;SDS011;69061;52.236;5.188;2024-01-10T11:51:00;20.33;;;11.52;;
64907;SDS011;69061;52.236;5.188;2024-01-10T11:53:38;18.10;;;11.45;;
64907;SDS011;69061;52.236;5.188;2024-01-10T11:56:11;22.00;;;11.27;;
64907;SDS011;69061;52.236;5.188;2024-01-10T11:58:52;20.27;;;10.77;;
64907;SDS011;69061;52.236;5.188;2024-01-10T12:01:20;23.77;;;12.27;;
64907;SDS011;69061;52.236;5.188;2024-01-10T12:03:54;21.52;;;11.75;;
64907;SDS011;69061;52.236;5.188;2024-01-10T12:06:23;22.40;;;11.82;;
64907;SDS011;69061;52.236;5.188;2024-01-10T12:08:50;22.25;;;12.88;;
64907;SDS011;69061;52.236;5.188;2024-01-10T12:11:19;22.48;;;11.45;;
64907;SDS011;69061;52.236;5.188;2024-01-10T12:13:46;20.33;;;11.65;;
64907;SDS011;69061;52.236;5.188;2024-01-10T12:16:13;21.92;;;12.52;;
64907;SDS011;69061;52.236;5.188;2024-01-10T12:18:41;20.48;;;11.07;;
64907;SDS011;69061;52.236;5.188;2024-01-10T12:21:11;22.35;;;12.57;;
64907;SDS011;69061;52.236;5.188;2024-01-10T12:23:38;22.02;;;12.55;;
64907;SDS011;69061;52.236;5.188;2024-01-10T12:26:07;23.00;;;11.88;;
64907;SDS011;69061;52.236;5.188;2024-01-10T12:28:38;21.42;;;11.27;;
64907;SDS011;69061;52.236;5.188;2024-01-10T12:31:07;25.85;;;12.32;;
64907;SDS011;69061;52.236;5.188;2024-01-10T12:33:35;20.13;;;11.25;;
64907;SDS011;69061;52.236;5.188;2024-01-10T12:36:06;20.60;;;11.43;;
64907;SDS011;69061;52.236;5.188;2024-01-10T12:38:35;21.02;;;11.57;;
64907;SDS011;69061;52.236;5.188;2024-01-10T12:41:01;21.83;;;12.10;;
64907;SDS011;69061;52.236;5.188;2024-01-10T12:43:30;20.95;;;11.73;;
64907;SDS011;69061;52.236;5.188;2024-01-10T12:46:03;20.70;;;10.90;;
64907;SDS011;69061;52.236;5.188;2024-01-10T12:48:33;21.42;;;11.88;;
64907;SDS011;69061;52.236;5.188;2024-01-10T12:51:02;29.63;;;12.65;;
64907;SDS011;69061;52.236;5.188;2024-01-10T12:53:32;18.75;;;11.07;;
64907;SDS011;69061;52.236;5.188;2024-01-10T12:56:01;22.20;;;11.40;;
64907;SDS011;69061;52.236;5.188;2024-01-10T12:58:28;16.95;;;10.57;;
64907;SDS011;69061;52.236;5.188;2024-01-10T13:00:55;19.70;;;11.82;;
64907;SDS011;69061;52.236;5.188;2024-01-10T13:03:22;20.10;;;11.48;;
64907;SDS011;69061;52.236;5.188;2024-01-10T13:05:49;22.50;;;11.98;;
64907;SDS011;69061;52.236;5.188;2024-01-10T13:08:15;23.27;;;13.32;;
64907;SDS011;69061;52.236;5.188;2024-01-10T13:10:44;24.20;;;12.95;;
64907;SDS011;69061;52.236;5.188;2024-01-10T13:13:10;20.00;;;11.88;;
64907;SDS011;69061;52.236;5.188;2024-01-10T13:15:37;20.20;;;11.50;;
64907;SDS011;69061;52.236;5.188;2024-01-10T13:18:04;21.27;;;12.15;;
64907;SDS011;69061;52.236;5.188;2024-01-10T13:20:31;16.63;;;11.77;;
64907;SDS011;69061;52.236;5.188;2024-01-10T13:22:58;21.23;;;11.38;;
64907;SDS011;69061;52.236;5.188;2024-01-10T13:25:25;20.55;;;13.18;;
64907;SDS011;69061;52.236;5.188;2024-01-10T13:27:53;19.73;;;11.77;;
64907;SDS011;69061;52.236;5.188;2024-01-10T13:30:20;21.13;;;11.85;;
64907;SDS011;69061;52.236;5.188;2024-01-10T13:32:46;22.08;;;13.00;;
64907;SDS011;69061;52.236;5.188;2024-01-10T13:35:12;17.42;;;11.80;;
64907;SDS011;69061;52.236;5.188;2024-01-10T13:37:39;21.10;;;12.40;;
64907;SDS011;69061;52.236;5.188;2024-01-10T13:40:06;22.80;;;12.40;;
64907;SDS011;69061;52.236;5.188;2024-01-10T13:42:35;19.30;;;11.90;;
64907;SDS011;69061;52.236;5.188;2024-01-10T13:45:04;19.50;;;12.32;;
64907;SDS011;69061;52.236;5.188;2024-01-10T13:47:31;20.42;;;12.68;;
64907;SDS011;69061;52.236;5.188;2024-01-10T13:49:59;19.80;;;11.82;;
64907;SDS011;69061;52.236;5.188;2024-01-10T13:52:28;25.17;;;12.25;;
64907;SDS011;69061;52.236;5.188;2024-01-10T13:54:54;23.23;;;13.00;;
64907;SDS011;69061;52.236;5.188;2024-01-10T13:57:21;21.58;;;13.38;;
64907;SDS011;69061;52.236;5.188;2024-01-10T13:59:48;20.60;;;11.63;;
64907;SDS011;69061;52.236;5.188;2024-01-10T14:02:16;21.75;;;12.80;;
64907;SDS011;69061;52.236;5.188;2024-01-10T14:04:44;22.60;;;13.02;;
64907;SDS011;69061;52.236;5.188;2024-01-10T14:07:11;27.38;;;13.05;;
64907;SDS011;69061;52.236;5.188;2024-01-10T14:09:38;23.63;;;12.20;;
64907;SDS011;69061;52.236;5.188;2024-01-10T14:12:05;21.42;;;13.05;;
64907;SDS011;69061;52.236;5.188;2024-01-10T14:14:32;19.33;;;10.85;;
64907;SDS011;69061;52.236;5.188;2024-01-10T14:16:59;20.00;;;11.93;;
64907;SDS011;69061;52.236;5.188;2024-01-10T14:19:26;20.00;;;11.48;;
64907;SDS011;69061;52.236;5.188;2024-01-10T14:21:55;23.25;;;12.77;;
64907;SDS011;69061;52.236;5.188;2024-01-10T14:24:21;23.35;;;12.07;;
64907;SDS011;69061;52.236;5.188;2024-01-10T14:26:48;26.15;;;13.13;;
64907;SDS011;69061;52.236;5.188;2024-01-10T14:29:15;21.25;;;12.65;;
64907;SDS011;69061;52.236;5.188;2024-01-10T14:31:41;16.83;;;10.32;;
64907;SDS011;69061;52.236;5.188;2024-01-10T14:34:08;23.58;;;12.27;;